sensor_id;sensor_type;location;lat;lon;timestamp;temperature;humidity
4312;DHT22;2169;49.086;9.284;2023-06-24T00:02:02;19.60;54.50
4312;DHT22;2169;49.086;9.284;2023-06-24T00:04:29;19.50;54.50
4312;DHT22;2169;49.086;9.284;2023-06-24T00:06:56;19.50;54.60
4312;DHT22;2169;49.086;9.284;2023-06-24T00:09:24;19.40;54.60
4312;DHT22;2169;49.086;9.284;2023-06-24T00:11:54;19.40;54.70
4312;DHT22;2169;49.086;9.284;2023-06-24T00:14:21;19.30;54.70
4312;DHT22;2169;49.086;9.284;2023-06-24T00:16:49;19.20;54.80
4312;DHT22;2169;49.086;9.284;2023-06-24T00:19:18;19.20;55.00
4312;DHT22;2169;49.086;9.284;2023-06-24T00:21:45;19.10;55.10
4312;DHT22;2169;49.086;9.284;2023-06-24T00:24:12;19.10;55.20
4312;DHT22;2169;49.086;9.284;2023-06-24T00:26:38;19.00;55.30
4312;DHT22;2169;49.086;9.284;2023-06-24T00:29:07;19.00;55.40
4312;DHT22;2169;49.086;9.284;2023-06-24T00:31:33;19.00;55.50
4312;DHT22;2169;49.086;9.284;2023-06-24T00:34:00;18.90;55.40
4312;DHT22;2169;49.086;9.284;2023-06-24T00:36:27;18.90;55.50
4312;DHT22;2169;49.086;9.284;2023-06-24T00:38:55;18.80;55.50
4312;DHT22;2169;49.086;9.284;2023-06-24T00:41:22;18.80;55.60
4312;DHT22;2169;49.086;9.284;2023-06-24T00:43:49;18.80;55.60
4312;DHT22;2169;49.086;9.284;2023-06-24T00:46:17;18.70;55.60
4312;DHT22;2169;49.086;9.284;2023-06-24T00:48:45;18.70;55.70
4312;DHT22;2169;49.086;9.284;2023-06-24T00:51:12;18.60;55.70
4312;DHT22;2169;49.086;9.284;2023-06-24T00:53:38;18.60;55.80
4312;DHT22;2169;49.086;9.284;2023-06-24T00:56:05;18.50;55.70
4312;DHT22;2169;49.086;9.284;2023-06-24T00:58:34;18.50;55.90
4312;DHT22;2169;49.086;9.284;2023-06-24T01:01:02;18.40;55.90
4312;DHT22;2169;49.086;9.284;2023-06-24T01:03:32;18.30;56.00
4312;DHT22;2169;49.086;9.284;2023-06-24T01:06:00;18.30;56.10
4312;DHT22;2169;49.086;9.284;2023-06-24T01:08:26;18.30;56.20
4312;DHT22;2169;49.086;9.284;2023-06-24T01:10:53;18.30;56.30
4312;DHT22;2169;49.086;9.284;2023-06-24T01:13:20;18.20;56.30
4312;DHT22;2169;49.086;9.284;2023-06-24T01:15:48;18.20;56.40
4312;DHT22;2169;49.086;9.284;2023-06-24T01:18:21;18.20;56.50
4312;DHT22;2169;49.086;9.284;2023-06-24T01:20:54;18.10;56.50
4312;DHT22;2169;49.086;9.284;2023-06-24T01:23:43;18.10;56.50
4312;DHT22;2169;49.086;9.284;2023-06-24T01:26:29;18.00;56.50
4312;DHT22;2169;49.086;9.284;2023-06-24T01:29:26;18.00;56.70
4312;DHT22;2169;49.086;9.284;2023-06-24T01:31:59;17.90;56.70
4312;DHT22;2169;49.086;9.284;2023-06-24T01:34:34;17.80;56.70
4312;DHT22;2169;49.086;9.284;2023-06-24T01:37:10;17.80;56.80
4312;DHT22;2169;49.086;9.284;2023-06-24T01:39:41;17.80;56.90
4312;DHT22;2169;49.086;9.284;2023-06-24T01:42:10;17.70;56.80
4312;DHT22;2169;49.086;9.284;2023-06-24T01:44:40;17.70;56.90
4312;DHT22;2169;49.086;9.284;2023-06-24T01:47:10;17.70;57.00
4312;DHT22;2169;49.086;9.284;2023-06-24T01:49:39;17.70;57.00
4312;DHT22;2169;49.086;9.284;2023-06-24T01:52:08;17.60;57.10
4312;DHT22;2169;49.086;9.284;2023-06-24T01:54:36;17.60;57.10
4312;DHT22;2169;49.086;9.284;2023-06-24T01:57:06;17.50;57.10
4312;DHT22;2169;49.086;9.284;2023-06-24T01:59:35;17.50;57.20
4312;DHT22;2169;49.086;9.284;2023-06-24T02:02:05;17.50;57.20
4312;DHT22;2169;49.086;9.284;2023-06-24T02:04:34;17.40;57.30
4312;DHT22;2169;49.086;9.284;2023-06-24T02:07:03;17.40;57.30
4312;DHT22;2169;49.086;9.284;2023-06-24T02:09:31;17.40;57.30
4312;DHT22;2169;49.086;9.284;2023-06-24T02:12:01;17.30;57.30
4312;DHT22;2169;49.086;9.284;2023-06-24T02:14:30;17.30;57.40
4312;DHT22;2169;49.086;9.284;2023-06-24T02:16:58;17.20;57.40
4312;DHT22;2169;49.086;9.284;2023-06-24T02:19:29;17.20;57.40
4312;DHT22;2169;49.086;9.284;2023-06-24T02:21:58;17.20;57.50
4312;DHT22;2169;49.086;9.284;2023-06-24T02:24:26;17.20;57.60
4312;DHT22;2169;49.086;9.284;2023-06-24T02:26:55;17.10;57.50
4312;DHT22;2169;49.086;9.284;2023-06-24T02:29:23;17.10;57.60
4312;DHT22;2169;49.086;9.284;2023-06-24T02:31:51;17.00;57.60
4312;DHT22;2169;49.086;9.284;2023-06-24T02:34:19;17.00;57.60
4312;DHT22;2169;49.086;9.284;2023-06-24T02:36:46;17.00;57.70
4312;DHT22;2169;49.086;9.284;2023-06-24T02:39:14;17.00;57.80
4312;DHT22;2169;49.086;9.284;2023-06-24T02:41:41;16.90;57.70
4312;DHT22;2169;49.086;9.284;2023-06-24T02:44:09;16.90;57.90
4312;DHT22;2169;49.086;9.284;2023-06-24T02:46:37;16.90;58.00
4312;DHT22;2169;49.086;9.284;2023-06-24T02:49:05;16.80;57.90
4312;DHT22;2169;49.086;9.284;2023-06-24T02:51:33;16.80;58.00
4312;DHT22;2169;49.086;9.284;2023-06-24T02:54:01;16.80;58.00
4312;DHT22;2169;49.086;9.284;2023-06-24T02:56:30;16.70;58.60
4312;DHT22;2169;49.086;9.284;2023-06-24T02:58:57;16.70;58.00
4312;DHT22;2169;49.086;9.284;2023-06-24T03:01:24;16.70;58.10
4312;DHT22;2169;49.086;9.284;2023-06-24T03:03:53;16.60;58.10
4312;DHT22;2169;49.086;9.284;2023-06-24T03:06:21;16.60;58.10
4312;DHT22;2169;49.086;9.284;2023-06-24T03:08:49;16.60;58.20
4312;DHT22;2169;49.086;9.284;2023-06-24T03:11:16;16.50;58.10
4312;DHT22;2169;49.086;9.284;2023-06-24T03:13:44;16.50;58.30
4312;DHT22;2169;49.086;9.284;2023-06-24T03:16:11;16.40;58.30
4312;DHT22;2169;49.086;9.284;2023-06-24T03:18:40;16.40;58.50
4312;DHT22;2169;49.086;9.284;2023-06-24T03:21:07;16.40;58.60
4312;DHT22;2169;49.086;9.284;2023-06-24T03:23:34;16.40;58.70
4312;DHT22;2169;49.086;9.284;2023-06-24T03:26:01;16.40;58.70
4312;DHT22;2169;49.086;9.284;2023-06-24T03:28:29;16.30;58.70
4312;DHT22;2169;49.086;9.284;2023-06-24T03:30:58;16.30;58.60
4312;DHT22;2169;49.086;9.284;2023-06-24T03:33:25;16.30;58.70
4312;DHT22;2169;49.086;9.284;2023-06-24T03:35:52;16.30;58.70
4312;DHT22;2169;49.086;9.284;2023-06-24T03:38:20;16.30;58.80
4312;DHT22;2169;49.086;9.284;2023-06-24T03:40:47;16.20;58.80
4312;DHT22;2169;49.086;9.284;2023-06-24T03:43:14;16.20;58.80
4312;DHT22;2169;49.086;9.284;2023-06-24T03:45:40;16.20;58.90
4312;DHT22;2169;49.086;9.284;2023-06-24T03:48:09;16.20;58.90
4312;DHT22;2169;49.086;9.284;2023-06-24T03:50:36;16.20;59.00
4312;DHT22;2169;49.086;9.284;2023-06-24T03:53:04;16.10;59.00
4312;DHT22;2169;49.086;9.284;2023-06-24T03:55:30;16.10;59.00
4312;DHT22;2169;49.086;9.284;2023-06-24T03:57:57;16.10;59.10
4312;DHT22;2169;49.086;9.284;2023-06-24T04:00:24;16.10;59.20
4312;DHT22;2169;49.086;9.284;2023-06-24T04:02:51;16.10;59.20
4312;DHT22;2169;49.086;9.284;2023-06-24T04:05:20;16.10;59.40
4312;DHT22;2169;49.086;9.284;2023-06-24T04:07:48;16.10;59.50
4312;DHT22;2169;49.086;9.284;2023-06-24T04:10:17;16.10;59.50
4312;DHT22;2169;49.086;9.284;2023-06-24T04:12:43;16.10;59.60
4312;DHT22;2169;49.086;9.284;2023-06-24T04:15:11;16.00;59.50
4312;DHT22;2169;49.086;9.284;2023-06-24T04:17:38;16.00;59.60
4312;DHT22;2169;49.086;9.284;2023-06-24T04:20:06;16.00;59.80
4312;DHT22;2169;49.086;9.284;2023-06-24T04:22:36;16.00;59.90
4312;DHT22;2169;49.086;9.284;2023-06-24T04:25:05;16.00;60.00
4312;DHT22;2169;49.086;9.284;2023-06-24T04:27:32;16.00;60.10
4312;DHT22;2169;49.086;9.284;2023-06-24T04:29:59;16.00;60.30
4312;DHT22;2169;49.086;9.284;2023-06-24T04:32:26;16.00;60.30
4312;DHT22;2169;49.086;9.284;2023-06-24T04:34:53;16.00;60.40
4312;DHT22;2169;49.086;9.284;2023-06-24T04:37:20;16.00;60.60
4312;DHT22;2169;49.086;9.284;2023-06-24T04:39:50;16.00;61.50
4312;DHT22;2169;49.086;9.284;2023-06-24T04:42:17;16.10;60.90
4312;DHT22;2169;49.086;9.284;2023-06-24T04:44:44;16.00;60.90
4312;DHT22;2169;49.086;9.284;2023-06-24T04:47:11;16.10;61.10
4312;DHT22;2169;49.086;9.284;2023-06-24T04:49:39;16.10;61.20
4312;DHT22;2169;49.086;9.284;2023-06-24T04:52:06;16.10;61.30
4312;DHT22;2169;49.086;9.284;2023-06-24T04:54:34;16.10;61.40
4312;DHT22;2169;49.086;9.284;2023-06-24T04:57:05;16.10;61.40
4312;DHT22;2169;49.086;9.284;2023-06-24T04:59:32;16.20;61.70
4312;DHT22;2169;49.086;9.284;2023-06-24T05:01:59;16.20;61.70
4312;DHT22;2169;49.086;9.284;2023-06-24T05:04:26;16.20;61.70
4312;DHT22;2169;49.086;9.284;2023-06-24T05:06:53;16.30;61.80
4312;DHT22;2169;49.086;9.284;2023-06-24T05:09:19;16.30;61.80
4312;DHT22;2169;49.086;9.284;2023-06-24T05:11:46;16.30;61.80
4312;DHT22;2169;49.086;9.284;2023-06-24T05:14:15;16.40;61.80
4312;DHT22;2169;49.086;9.284;2023-06-24T05:16:42;16.40;61.80
4312;DHT22;2169;49.086;9.284;2023-06-24T05:19:10;16.50;61.90
4312;DHT22;2169;49.086;9.284;2023-06-24T05:21:36;16.50;61.90
4312;DHT22;2169;49.086;9.284;2023-06-24T05:24:04;16.50;61.90
4312;DHT22;2169;49.086;9.284;2023-06-24T05:26:31;16.60;62.00
4312;DHT22;2169;49.086;9.284;2023-06-24T05:28:58;16.60;61.90
4312;DHT22;2169;49.086;9.284;2023-06-24T05:31:26;16.70;61.90
4312;DHT22;2169;49.086;9.284;2023-06-24T05:33:53;16.80;62.00
4312;DHT22;2169;49.086;9.284;2023-06-24T05:36:20;16.80;62.00
4312;DHT22;2169;49.086;9.284;2023-06-24T05:38:47;16.90;62.10
4312;DHT22;2169;49.086;9.284;2023-06-24T05:41:15;17.00;62.30
4312;DHT22;2169;49.086;9.284;2023-06-24T05:43:43;17.10;62.40
4312;DHT22;2169;49.086;9.284;2023-06-24T05:46:10;17.20;63.30
4312;DHT22;2169;49.086;9.284;2023-06-24T05:48:38;17.30;62.70
4312;DHT22;2169;49.086;9.284;2023-06-24T05:51:05;17.50;62.80
4312;DHT22;2169;49.086;9.284;2023-06-24T05:53:34;17.60;62.90
4312;DHT22;2169;49.086;9.284;2023-06-24T05:56:01;17.80;62.90
4312;DHT22;2169;49.086;9.284;2023-06-24T05:58:27;18.00;62.90
4312;DHT22;2169;49.086;9.284;2023-06-24T06:00:54;18.10;62.90
4312;DHT22;2169;49.086;9.284;2023-06-24T06:03:21;18.30;62.90
4312;DHT22;2169;49.086;9.284;2023-06-24T06:05:50;18.50;62.60
4312;DHT22;2169;49.086;9.284;2023-06-24T06:08:17;18.80;62.50
4312;DHT22;2169;49.086;9.284;2023-06-24T06:10:43;19.00;62.20
4312;DHT22;2169;49.086;9.284;2023-06-24T06:13:10;19.20;62.00
4312;DHT22;2169;49.086;9.284;2023-06-24T06:15:37;19.40;61.70
4312;DHT22;2169;49.086;9.284;2023-06-24T06:18:04;19.50;61.20
4312;DHT22;2169;49.086;9.284;2023-06-24T06:20:31;19.70;61.00
4312;DHT22;2169;49.086;9.284;2023-06-24T06:23:00;19.90;60.60
4312;DHT22;2169;49.086;9.284;2023-06-24T06:25:26;20.10;60.00
4312;DHT22;2169;49.086;9.284;2023-06-24T06:27:53;20.20;59.50
4312;DHT22;2169;49.086;9.284;2023-06-24T06:30:20;20.40;59.30
4312;DHT22;2169;49.086;9.284;2023-06-24T06:32:47;20.50;59.50
4312;DHT22;2169;49.086;9.284;2023-06-24T06:35:14;20.70;58.40
4312;DHT22;2169;49.086;9.284;2023-06-24T06:37:41;20.80;58.20
4312;DHT22;2169;49.086;9.284;2023-06-24T06:40:10;21.00;58.00
4312;DHT22;2169;49.086;9.284;2023-06-24T06:42:37;21.20;57.80
4312;DHT22;2169;49.086;9.284;2023-06-24T06:45:05;21.40;57.60
4312;DHT22;2169;49.086;9.284;2023-06-24T06:47:32;21.50;57.30
4312;DHT22;2169;49.086;9.284;2023-06-24T06:49:59;21.70;57.00
4312;DHT22;2169;49.086;9.284;2023-06-24T06:52:25;21.90;56.60
4312;DHT22;2169;49.086;9.284;2023-06-24T06:54:53;22.00;56.10
4312;DHT22;2169;49.086;9.284;2023-06-24T06:57:21;22.20;55.90
4312;DHT22;2169;49.086;9.284;2023-06-24T06:59:48;22.30;55.50
4312;DHT22;2169;49.086;9.284;2023-06-24T07:02:16;22.50;55.30
4312;DHT22;2169;49.086;9.284;2023-06-24T07:04:43;22.60;54.80
4312;DHT22;2169;49.086;9.284;2023-06-24T07:07:10;22.80;54.60
4312;DHT22;2169;49.086;9.284;2023-06-24T07:09:37;22.90;54.20
4312;DHT22;2169;49.086;9.284;2023-06-24T07:12:06;23.10;53.90
4312;DHT22;2169;49.086;9.284;2023-06-24T07:14:34;23.30;53.60
4312;DHT22;2169;49.086;9.284;2023-06-24T07:17:01;23.40;52.90
4312;DHT22;2169;49.086;9.284;2023-06-24T07:19:28;23.60;52.70
4312;DHT22;2169;49.086;9.284;2023-06-24T07:21:54;23.80;52.50
4312;DHT22;2169;49.086;9.284;2023-06-24T07:24:21;23.90;52.30
4312;DHT22;2169;49.086;9.284;2023-06-24T07:26:48;24.10;52.10
4312;DHT22;2169;49.086;9.284;2023-06-24T07:29:15;24.30;51.90
4312;DHT22;2169;49.086;9.284;2023-06-24T07:31:43;24.50;51.50
4312;DHT22;2169;49.086;9.284;2023-06-24T07:34:10;24.70;51.10
4312;DHT22;2169;49.086;9.284;2023-06-24T07:36:37;24.80;50.80
4312;DHT22;2169;49.086;9.284;2023-06-24T07:39:04;25.00;50.30
4312;DHT22;2169;49.086;9.284;2023-06-24T07:41:32;25.10;50.00
4312;DHT22;2169;49.086;9.284;2023-06-24T07:43:59;25.30;49.70
4312;DHT22;2169;49.086;9.284;2023-06-24T07:46:27;25.50;49.30
4312;DHT22;2169;49.086;9.284;2023-06-24T07:48:55;25.60;48.80
4312;DHT22;2169;49.086;9.284;2023-06-24T07:51:22;25.70;48.30
4312;DHT22;2169;49.086;9.284;2023-06-24T07:53:49;25.80;48.00
4312;DHT22;2169;49.086;9.284;2023-06-24T07:56:17;25.90;47.50
4312;DHT22;2169;49.086;9.284;2023-06-24T07:58:44;26.00;47.30
4312;DHT22;2169;49.086;9.284;2023-06-24T08:01:11;26.20;47.20
4312;DHT22;2169;49.086;9.284;2023-06-24T08:03:38;26.40;46.90
4312;DHT22;2169;49.086;9.284;2023-06-24T08:06:08;26.50;46.50
4312;DHT22;2169;49.086;9.284;2023-06-24T08:08:35;26.70;46.30
4312;DHT22;2169;49.086;9.284;2023-06-24T08:11:02;26.80;45.90
4312;DHT22;2169;49.086;9.284;2023-06-24T08:13:29;27.00;45.60
4312;DHT22;2169;49.086;9.284;2023-06-24T08:15:59;27.10;45.00
4312;DHT22;2169;49.086;9.284;2023-06-24T08:18:26;27.20;44.50
4312;DHT22;2169;49.086;9.284;2023-06-24T08:20:53;27.30;44.00
4312;DHT22;2169;49.086;9.284;2023-06-24T08:23:21;27.40;43.70
4312;DHT22;2169;49.086;9.284;2023-06-24T08:25:48;27.50;43.30
4312;DHT22;2169;49.086;9.284;2023-06-24T08:28:15;27.60;42.80
4312;DHT22;2169;49.086;9.284;2023-06-24T08:34:04;27.90;41.90
4312;DHT22;2169;49.086;9.284;2023-06-24T08:36:32;28.00;41.70
4312;DHT22;2169;49.086;9.284;2023-06-24T08:39:00;28.10;41.20
4312;DHT22;2169;49.086;9.284;2023-06-24T08:41:27;28.20;40.80
4312;DHT22;2169;49.086;9.284;2023-06-24T08:43:56;28.30;40.40
4312;DHT22;2169;49.086;9.284;2023-06-24T08:46:24;28.40;40.40
4312;DHT22;2169;49.086;9.284;2023-06-24T08:48:57;28.50;40.40
4312;DHT22;2169;49.086;9.284;2023-06-24T08:51:29;28.60;40.30
4312;DHT22;2169;49.086;9.284;2023-06-24T08:53:57;28.70;40.30
4312;DHT22;2169;49.086;9.284;2023-06-24T08:56:26;28.90;40.10
4312;DHT22;2169;49.086;9.284;2023-06-24T08:58:53;29.10;40.00
4312;DHT22;2169;49.086;9.284;2023-06-24T09:01:20;29.20;39.70
4312;DHT22;2169;49.086;9.284;2023-06-24T09:03:47;29.40;39.40
4312;DHT22;2169;49.086;9.284;2023-06-24T09:06:15;29.40;39.00
4312;DHT22;2169;49.086;9.284;2023-06-24T09:08:52;29.50;38.70
4312;DHT22;2169;49.086;9.284;2023-06-24T09:11:22;29.60;38.40
4312;DHT22;2169;49.086;9.284;2023-06-24T09:13:56;29.60;38.90
4312;DHT22;2169;49.086;9.284;2023-06-24T09:16:23;29.80;38.10
4312;DHT22;2169;49.086;9.284;2023-06-24T09:18:51;29.90;37.90
4312;DHT22;2169;49.086;9.284;2023-06-24T09:21:22;30.00;37.70
4312;DHT22;2169;49.086;9.284;2023-06-24T09:23:56;30.00;37.10
4312;DHT22;2169;49.086;9.284;2023-06-24T09:26:23;30.10;36.90
4312;DHT22;2169;49.086;9.284;2023-06-24T09:28:51;30.20;36.70
4312;DHT22;2169;49.086;9.284;2023-06-24T09:31:20;30.30;36.40
4312;DHT22;2169;49.086;9.284;2023-06-24T09:33:48;30.50;35.80
4312;DHT22;2169;49.086;9.284;2023-06-24T09:36:15;30.50;35.50
4312;DHT22;2169;49.086;9.284;2023-06-24T09:38:43;30.50;35.00
4312;DHT22;2169;49.086;9.284;2023-06-24T09:41:11;30.60;35.00
4312;DHT22;2169;49.086;9.284;2023-06-24T09:43:42;30.70;35.00
4312;DHT22;2169;49.086;9.284;2023-06-24T09:46:10;30.80;34.60
4312;DHT22;2169;49.086;9.284;2023-06-24T09:48:39;30.90;34.30
4312;DHT22;2169;49.086;9.284;2023-06-24T09:51:07;31.00;34.00
4312;DHT22;2169;49.086;9.284;2023-06-24T09:53:35;31.10;33.70
4312;DHT22;2169;49.086;9.284;2023-06-24T09:56:03;31.20;33.20
4312;DHT22;2169;49.086;9.284;2023-06-24T09:58:33;31.20;32.90
4312;DHT22;2169;49.086;9.284;2023-06-24T10:01:04;31.30;32.50
4312;DHT22;2169;49.086;9.284;2023-06-24T10:03:33;31.30;32.30
4312;DHT22;2169;49.086;9.284;2023-06-24T10:06:03;31.40;31.90
4312;DHT22;2169;49.086;9.284;2023-06-24T10:08:31;31.40;31.20
4312;DHT22;2169;49.086;9.284;2023-06-24T10:10:59;31.30;30.80
4312;DHT22;2169;49.086;9.284;2023-06-24T10:13:26;31.40;30.20
4312;DHT22;2169;49.086;9.284;2023-06-24T10:15:54;31.40;29.70
4312;DHT22;2169;49.086;9.284;2023-06-24T10:18:34;31.30;29.60
4312;DHT22;2169;49.086;9.284;2023-06-24T10:21:03;31.30;29.50
4312;DHT22;2169;49.086;9.284;2023-06-24T10:23:32;31.30;29.90
4312;DHT22;2169;49.086;9.284;2023-06-24T10:26:00;31.30;30.00
4312;DHT22;2169;49.086;9.284;2023-06-24T10:28:30;31.40;30.20
4312;DHT22;2169;49.086;9.284;2023-06-24T10:31:19;31.50;30.40
4312;DHT22;2169;49.086;9.284;2023-06-24T10:33:52;31.70;30.20
4312;DHT22;2169;49.086;9.284;2023-06-24T10:36:31;31.80;30.00
4312;DHT22;2169;49.086;9.284;2023-06-24T10:38:58;32.00;29.50
4312;DHT22;2169;49.086;9.284;2023-06-24T10:41:25;32.00;29.30
4312;DHT22;2169;49.086;9.284;2023-06-24T10:43:56;32.00;29.10
4312;DHT22;2169;49.086;9.284;2023-06-24T10:46:26;32.00;28.80
4312;DHT22;2169;49.086;9.284;2023-06-24T10:48:53;32.00;28.80
4312;DHT22;2169;49.086;9.284;2023-06-24T10:51:20;32.10;28.80
4312;DHT22;2169;49.086;9.284;2023-06-24T10:53:48;32.10;28.90
4312;DHT22;2169;49.086;9.284;2023-06-24T10:56:14;32.10;28.80
4312;DHT22;2169;49.086;9.284;2023-06-24T10:58:55;32.10;28.70
4312;DHT22;2169;49.086;9.284;2023-06-24T11:01:23;32.20;28.70
4312;DHT22;2169;49.086;9.284;2023-06-24T11:03:50;32.20;28.60
4312;DHT22;2169;49.086;9.284;2023-06-24T11:06:17;32.10;28.50
4312;DHT22;2169;49.086;9.284;2023-06-24T11:08:45;32.10;28.30
4312;DHT22;2169;49.086;9.284;2023-06-24T11:11:19;32.10;28.30
4312;DHT22;2169;49.086;9.284;2023-06-24T11:13:48;32.10;28.20
4312;DHT22;2169;49.086;9.284;2023-06-24T11:16:20;32.10;28.00
4312;DHT22;2169;49.086;9.284;2023-06-24T11:18:49;31.90;27.80
4312;DHT22;2169;49.086;9.284;2023-06-24T11:21:16;31.90;27.80
4312;DHT22;2169;49.086;9.284;2023-06-24T11:23:42;31.80;27.90
4312;DHT22;2169;49.086;9.284;2023-06-24T11:26:09;31.80;27.80
4312;DHT22;2169;49.086;9.284;2023-06-24T11:28:37;31.80;27.90
4312;DHT22;2169;49.086;9.284;2023-06-24T11:31:06;31.90;27.90
4312;DHT22;2169;49.086;9.284;2023-06-24T11:33:33;31.90;27.80
4312;DHT22;2169;49.086;9.284;2023-06-24T11:36:09;32.00;27.70
4312;DHT22;2169;49.086;9.284;2023-06-24T11:38:36;32.10;27.50
4312;DHT22;2169;49.086;9.284;2023-06-24T11:41:03;32.10;27.50
4312;DHT22;2169;49.086;9.284;2023-06-24T11:43:30;32.10;27.50
4312;DHT22;2169;49.086;9.284;2023-06-24T11:45:58;32.20;27.50
4312;DHT22;2169;49.086;9.284;2023-06-24T11:48:28;32.20;27.40
4312;DHT22;2169;49.086;9.284;2023-06-24T11:50:56;32.20;27.30
4312;DHT22;2169;49.086;9.284;2023-06-24T11:53:40;32.20;26.90
4312;DHT22;2169;49.086;9.284;2023-06-24T11:56:07;32.10;26.70
4312;DHT22;2169;49.086;9.284;2023-06-24T11:58:34;32.10;27.10
4312;DHT22;2169;49.086;9.284;2023-06-24T12:01:06;32.20;27.10
4312;DHT22;2169;49.086;9.284;2023-06-24T12:03:33;32.30;26.90
4312;DHT22;2169;49.086;9.284;2023-06-24T12:06:01;32.30;26.70
4312;DHT22;2169;49.086;9.284;2023-06-24T12:08:30;32.30;26.50
4312;DHT22;2169;49.086;9.284;2023-06-24T12:10:57;32.20;26.30
4312;DHT22;2169;49.086;9.284;2023-06-24T12:13:24;32.00;26.40
4312;DHT22;2169;49.086;9.284;2023-06-24T12:15:52;31.80;26.20
4312;DHT22;2169;49.086;9.284;2023-06-24T12:18:19;31.70;26.30
4312;DHT22;2169;49.086;9.284;2023-06-24T12:20:45;31.70;26.40
4312;DHT22;2169;49.086;9.284;2023-06-24T12:23:12;31.70;26.20
4312;DHT22;2169;49.086;9.284;2023-06-24T12:25:41;31.90;26.30
4312;DHT22;2169;49.086;9.284;2023-06-24T12:28:08;31.90;26.10
4312;DHT22;2169;49.086;9.284;2023-06-24T12:30:35;32.00;26.30
4312;DHT22;2169;49.086;9.284;2023-06-24T12:33:02;32.10;26.40
4312;DHT22;2169;49.086;9.284;2023-06-24T12:35:29;32.10;26.00
4312;DHT22;2169;49.086;9.284;2023-06-24T12:37:56;32.10;26.00
4312;DHT22;2169;49.086;9.284;2023-06-24T12:40:24;32.00;26.00
4312;DHT22;2169;49.086;9.284;2023-06-24T12:42:52;32.00;26.10
4312;DHT22;2169;49.086;9.284;2023-06-24T12:45:19;32.10;26.00
4312;DHT22;2169;49.086;9.284;2023-06-24T12:47:48;32.10;25.90
4312;DHT22;2169;49.086;9.284;2023-06-24T12:50:16;32.10;25.90
4312;DHT22;2169;49.086;9.284;2023-06-24T12:52:43;32.10;25.80
4312;DHT22;2169;49.086;9.284;2023-06-24T12:55:10;32.10;26.00
4312;DHT22;2169;49.086;9.284;2023-06-24T12:57:37;32.00;25.60
4312;DHT22;2169;49.086;9.284;2023-06-24T13:00:08;32.10;25.70
4312;DHT22;2169;49.086;9.284;2023-06-24T13:02:37;32.10;25.70
4312;DHT22;2169;49.086;9.284;2023-06-24T13:05:04;32.20;25.60
4312;DHT22;2169;49.086;9.284;2023-06-24T13:07:34;32.20;25.40
4312;DHT22;2169;49.086;9.284;2023-06-24T13:10:01;32.30;25.40
4312;DHT22;2169;49.086;9.284;2023-06-24T13:12:31;32.30;25.40
4312;DHT22;2169;49.086;9.284;2023-06-24T13:14:58;32.20;25.30
4312;DHT22;2169;49.086;9.284;2023-06-24T13:17:28;32.30;25.30
4312;DHT22;2169;49.086;9.284;2023-06-24T13:19:56;32.30;25.00
4312;DHT22;2169;49.086;9.284;2023-06-24T13:22:23;32.40;25.00
4312;DHT22;2169;49.086;9.284;2023-06-24T13:24:50;32.40;24.90
4312;DHT22;2169;49.086;9.284;2023-06-24T13:27:17;32.50;25.00
4312;DHT22;2169;49.086;9.284;2023-06-24T13:29:44;32.50;24.70
4312;DHT22;2169;49.086;9.284;2023-06-24T13:32:11;32.50;24.70
4312;DHT22;2169;49.086;9.284;2023-06-24T13:34:40;32.50;24.70
4312;DHT22;2169;49.086;9.284;2023-06-24T13:37:07;32.50;24.80
4312;DHT22;2169;49.086;9.284;2023-06-24T13:39:34;32.50;25.20
4312;DHT22;2169;49.086;9.284;2023-06-24T13:42:01;32.50;25.50
4312;DHT22;2169;49.086;9.284;2023-06-24T13:44:29;32.50;25.70
4312;DHT22;2169;49.086;9.284;2023-06-24T13:46:56;32.50;25.80
4312;DHT22;2169;49.086;9.284;2023-06-24T13:49:23;32.60;26.00
4312;DHT22;2169;49.086;9.284;2023-06-24T13:51:52;32.60;26.10
4312;DHT22;2169;49.086;9.284;2023-06-24T13:54:19;32.60;26.00
4312;DHT22;2169;49.086;9.284;2023-06-24T13:56:46;32.70;26.00
4312;DHT22;2169;49.086;9.284;2023-06-24T13:59:13;32.70;25.70
4312;DHT22;2169;49.086;9.284;2023-06-24T14:01:40;32.60;25.80
4312;DHT22;2169;49.086;9.284;2023-06-24T14:04:07;32.60;25.90
4312;DHT22;2169;49.086;9.284;2023-06-24T14:06:34;32.60;25.70
4312;DHT22;2169;49.086;9.284;2023-06-24T14:09:02;32.50;25.80
4312;DHT22;2169;49.086;9.284;2023-06-24T14:11:29;32.60;25.90
4312;DHT22;2169;49.086;9.284;2023-06-24T14:13:56;32.60;25.70
4312;DHT22;2169;49.086;9.284;2023-06-24T14:16:23;32.60;25.70
4312;DHT22;2169;49.086;9.284;2023-06-24T14:18:50;32.70;25.70
4312;DHT22;2169;49.086;9.284;2023-06-24T14:21:17;32.60;25.70
4312;DHT22;2169;49.086;9.284;2023-06-24T14:23:44;32.60;25.50
4312;DHT22;2169;49.086;9.284;2023-06-24T14:26:12;32.60;25.60
4312;DHT22;2169;49.086;9.284;2023-06-24T14:28:39;32.60;25.50
4312;DHT22;2169;49.086;9.284;2023-06-24T14:31:06;32.70;25.60
4312;DHT22;2169;49.086;9.284;2023-06-24T14:33:33;32.80;25.70
4312;DHT22;2169;49.086;9.284;2023-06-24T14:36:00;32.90;25.60
4312;DHT22;2169;49.086;9.284;2023-06-24T14:38:26;33.00;25.50
4312;DHT22;2169;49.086;9.284;2023-06-24T14:40:54;33.00;25.20
4312;DHT22;2169;49.086;9.284;2023-06-24T14:43:23;33.00;25.20
4312;DHT22;2169;49.086;9.284;2023-06-24T14:45:50;33.00;25.20
4312;DHT22;2169;49.086;9.284;2023-06-24T14:48:17;33.10;25.10
4312;DHT22;2169;49.086;9.284;2023-06-24T14:50:44;33.10;24.90
4312;DHT22;2169;49.086;9.284;2023-06-24T14:53:11;33.00;24.90
4312;DHT22;2169;49.086;9.284;2023-06-24T14:55:38;33.00;25.00
4312;DHT22;2169;49.086;9.284;2023-06-24T14:58:05;33.00;24.90
4312;DHT22;2169;49.086;9.284;2023-06-24T15:00:35;33.00;25.00
4312;DHT22;2169;49.086;9.284;2023-06-24T15:03:02;33.00;25.00
4312;DHT22;2169;49.086;9.284;2023-06-24T15:05:28;33.00;25.10
4312;DHT22;2169;49.086;9.284;2023-06-24T15:07:55;33.00;25.20
4312;DHT22;2169;49.086;9.284;2023-06-24T15:10:22;33.10;25.20
4312;DHT22;2169;49.086;9.284;2023-06-24T15:12:49;33.20;25.30
4312;DHT22;2169;49.086;9.284;2023-06-24T15:15:17;33.30;25.20
4312;DHT22;2169;49.086;9.284;2023-06-24T15:17:45;33.30;25.20
4312;DHT22;2169;49.086;9.284;2023-06-24T15:20:13;33.30;25.20
4312;DHT22;2169;49.086;9.284;2023-06-24T15:22:40;33.20;25.10
4312;DHT22;2169;49.086;9.284;2023-06-24T15:25:08;33.10;25.30
4312;DHT22;2169;49.086;9.284;2023-06-24T15:27:35;33.10;25.30
4312;DHT22;2169;49.086;9.284;2023-06-24T15:30:02;33.10;25.30
4312;DHT22;2169;49.086;9.284;2023-06-24T15:32:29;33.10;25.30
4312;DHT22;2169;49.086;9.284;2023-06-24T15:34:57;33.10;25.20
4312;DHT22;2169;49.086;9.284;2023-06-24T15:37:24;33.10;25.20
4312;DHT22;2169;49.086;9.284;2023-06-24T15:39:51;33.10;25.10
4312;DHT22;2169;49.086;9.284;2023-06-24T15:42:19;33.10;25.30
4312;DHT22;2169;49.086;9.284;2023-06-24T15:44:46;33.10;25.30
4312;DHT22;2169;49.086;9.284;2023-06-24T15:47:13;33.00;25.30
4312;DHT22;2169;49.086;9.284;2023-06-24T15:49:40;33.10;25.40
4312;DHT22;2169;49.086;9.284;2023-06-24T15:52:10;33.20;25.40
4312;DHT22;2169;49.086;9.284;2023-06-24T15:54:37;33.20;25.30
4312;DHT22;2169;49.086;9.284;2023-06-24T15:57:04;33.20;25.30
4312;DHT22;2169;49.086;9.284;2023-06-24T15:59:31;33.20;25.40
4312;DHT22;2169;49.086;9.284;2023-06-24T16:01:58;33.20;25.40
4312;DHT22;2169;49.086;9.284;2023-06-24T16:04:25;33.30;25.40
4312;DHT22;2169;49.086;9.284;2023-06-24T16:06:52;33.30;25.40
4312;DHT22;2169;49.086;9.284;2023-06-24T16:09:22;33.30;25.40
4312;DHT22;2169;49.086;9.284;2023-06-24T16:11:48;33.30;25.40